Paynesville, MN

6:46 PM CST on December 25, 2014 (GMT -0600)
Willmar | Change Station
CLOSE
Current Station
Airport
Location: Willmar,
Elevation: 1125 ft
Nearby Weather Stations

Elev 1125 ft 45.12 °N, 95.13 °W | Updated 11 minutes ago

Snow
Snow
34 °F
Feels Like 30 °F
N
5
Wind Variable Wind from NNE

Today
High -- | Low -- °F
--% Chance of Precip.
Yesterday
High -- | Low -- °F
Precip. -- in
7:57 AM 4:40 PM
Waxing Crescent, 20% visible
Pressure 29.83 in
Visibility 3.0 miles
Clouds Overcast 1400 ft
Windchill 30 °F
Dew Point 30 °F
Humidity 87%
Rainfall 0.05 in
Snow Depth Not available.
UV 0 out of 12
Pollen .10 out of 12
Air Quality Not available.
Flu Activity Not available.
METAR KBDH 260035Z AUTO 03004KT 3SM UP OVC014 01/M01 A2983 RMK AO2

More Conditions Fewer Conditions

Pressure 29.83 in
Visibility 3.0 miles
Clouds Overcast 1400 ft
Windchill 30 °F
Dew Point 30 °F
Humidity 87%
Rainfall 0.05 in
Snow Depth Not available.
UV 0 out of 12
Pollen .10 out of 12
Air Quality Not available.
Flu Activity Not available.
METAR KBDH 260035Z AUTO 03004KT 3SM UP OVC014 01/M01 A2983 RMK AO2

More Conditions Fewer Conditions

10-Day Weather Forecast

Almanac

Astronomy

Dec. 25, 2014 Rise Set
Actual Time
Civil Twilight
Nautical Twilight
Astronomical Twilight
Moon
Length of Visible Light
Length of Day
Tomorrow will be .
, % of the Moon is Illuminated

Today's Extremes

State Highs State Lows

Community

WunderPhotos

Upload Photos

1,780,483 photos uploaded!

WunderBlogs® & News

Nearby

Air Quality

  Air Quality AQ Index Pollutant
Not available.

Snow Depth

Station Depth Elevation

Earthquake Activity

City Distance Mag. Time & Date
Minimum magnitude displayed is 2.5.

Coastal Water Temperatures

Place Temperature

Nearby Weather Stations